Kasif Kalkavan — V7IX7 — position and weather

sailwx.info

Track history (hours):
 
Tides and Currents Weather Stations Pressure Air Temp Water Temp Dewpoint Dewpoint Depression Visibility Wind Speed Wind Dir Waves Ship Positions

Kasif Kalkavan

Last reported at 2014-Jul-24 02:06 UTC. Time now 2014-Jul-24 20:03 UTC.
Position N 42°13' E 039°20'.

Type: Cargo ship. MMSI: 538090190.

Date/timePositionNaut miles runAvg speedWind from/ knotsBaromVisibWave heightAir tempDewpointWater temp
2014-Jul-24 02:06N 42°13' E 039°20'1415.8
2014-Jul-24 01:11N 42°13' E 039°00'45514.9
2014-Jul-22 18:33N 40°59' E 028°60'1413.0
2014-Jul-22 17:31N 40°48' E 028°49'1 0.8
2014-Jul-22 16:24N 40°48' E 028°48'  
2014-Jul-16 22:28N 37°36' E 024°28'46014.4
2014-Jul-15 14:33N 35°50' E 015°10'1514.9
2014-Jul-15 13:33N 35°49' E 014°52'1514.7
2014-Jul-15 12:33N 35°49' E 014°34'1 0.3
2014-Jul-15 10:11N 35°49' E 014°33'3 4.0
2014-Jul-15 09:29N 35°49' E 014°36'5 4.3
2014-Jul-15 08:23N 35°51' E 014°41'  
Track history (hours):
 
Tides and Currents Weather Stations Pressure Air Temp Water Temp Dewpoint Dewpoint Depression Visibility Wind Speed Wind Dir Waves Ship Positions

Kasif Kalkavan

Last reported at 2014-Jul-24 02:06 UTC. Time now 2014-Jul-24 20:03 UTC.
Position N 42°13' E 039°20'.

Type: Cargo ship. MMSI: 538090190.

Date/timePositionNaut miles runAvg speedWind from/ knotsBaromVisibWave heightAir tempDewpointWater temp
2014-Jul-24 02:06N 42°13' E 039°20'1415.8
2014-Jul-24 01:11N 42°13' E 039°00'45514.9
2014-Jul-22 18:33N 40°59' E 028°60'1413.0
2014-Jul-22 17:31N 40°48' E 028°49'1 0.8
2014-Jul-22 16:24N 40°48' E 028°48'  
2014-Jul-16 22:28N 37°36' E 024°28'46014.4
2014-Jul-15 14:33N 35°50' E 015°10'1514.9
2014-Jul-15 13:33N 35°49' E 014°52'1514.7
2014-Jul-15 12:33N 35°49' E 014°34'1 0.3
2014-Jul-15 10:11N 35°49' E 014°33'3 4.0
2014-Jul-15 09:29N 35°49' E 014°36'5 4.3
2014-Jul-15 08:23N 35°51' E 014°41'  

Dump ship's entire track history